Home   Weather   Canada   Ottawa   Past weeks
Flag for Canada

Past Weather in Ottawa, Ontario, Canada — July 2017

Currently: 25 °F. Light freezing rain. Ice fog. (Weather station: Ottawa Int'L. Ont., Canada). See more current weather

July 2017 Weather in Ottawa — Graph

°F

High & Low Weather Summary for July 2017

 TemperatureHumidityPressure
High84 °F (Jul 18, 3:00 pm)100% (Jul 1, 1:00 am)30.24 "Hg (Jul 1, 1:00 am)
Low50 °F (Jul 4, 5:00 am)29% (Jul 29, 1:00 pm)29.66 "Hg (Jul 8, 2:00 am)
Average68 °F78%29.94 "Hg
* Reported Jul 1 12:00 am — Jul 31 11:00 pm, Ottawa. Weather by CustomWeather, © 2021

Note: Actual official high and low records may vary slightly from our data, if they occured in-between our weather recording intervals... More about our weather records

Ottawa Weather History for July 1, 2017

Scroll right to see more
 ConditionsComfort  
Time TempWeatherWind HumidityBarometerVisibility
12:00 am
Sat, Jul 1
70 °FLight rain. Mostly cloudy.9 mph94%29.85 "Hg10 mi
1:00 am68 °FPassing clouds.5 mph100%29.85 "Hg15 mi
2:00 am66 °FPartly cloudy.3 mph100%29.85 "Hg15 mi
3:00 am66 °FPassing clouds.6 mph100%29.83 "Hg15 mi
4:00 am66 °FPassing clouds.8 mph100%29.82 "Hg15 mi
5:00 am66 °FFog.5 mph100%29.83 "Hg6 mi
5:22 am66 °FFog.8 mph100%29.83 "Hg4 mi
5:31 am66 °FLight rain. Fog.5 mph100%29.83 "Hg4 mi
6:00 am66 °FLight rain. Fog.6 mph100%29.85 "Hg4 mi
7:00 am66 °FLight rain. More clouds than sun.7 mph100%29.83 "Hg5 mi
8:00 am68 °FLight rain. Fog.6 mph100%29.85 "Hg3 mi
9:00 am66 °FLight rain. Fog.8 mph100%29.86 "Hg3 mi
10:00 am66 °FLight rain. Fog.7 mph100%29.86 "Hg3 mi
11:00 am66 °FLight rain. Fog.5 mph100%29.84 "Hg6 mi
12:00 pm68 °FLight rain. Broken clouds.8 mph100%29.82 "Hg10 mi
1:00 pm68 °FLight rain. Mostly cloudy.7 mph100%29.81 "Hg10 mi
1:43 pm70 °FBroken clouds.7 mph94%29.80 "Hg15 mi
2:00 pm70 °FBroken clouds.5 mph94%29.79 "Hg15 mi
3:00 pm73 °FBroken clouds.7 mph83%29.78 "Hg15 mi
4:00 pm72 °FBroken clouds.7 mph100%29.76 "Hg15 mi
4:08 pm72 °FLight rain. Mostly cloudy.9 mph94%29.75 "Hg15 mi
4:43 pm72 °FBroken clouds.8 mph94%29.74 "Hg15 mi
5:00 pm72 °FBroken clouds.8 mph94%29.73 "Hg15 mi
6:00 pm75 °FPartly sunny.8 mph89%29.72 "Hg15 mi
7:00 pm73 °FBroken clouds.10 mph89%29.71 "Hg15 mi
8:00 pm68 °FScattered showers. Broken clouds.16 mph88%29.74 "Hg15 mi
9:08 pm64 °FThunderstorms. Partly cloudy.7 mph100%29.76 "Hg10 mi
10:00 pm64 °FPassing clouds.6 mph100%29.78 "Hg10 mi
10:22 pm64 °FSprinkles. Mostly cloudy.6 mph100%29.78 "Hg10 mi
10:52 pm66 °FFog.7 mph100%29.78 "Hg6 mi
11:04 pm66 °FSprinkles. Fog.6 mph100%29.78 "Hg4 mi
11:29 pm64 °FPassing clouds.7 mph100%29.78 "Hg8 mi
Weather by CustomWeather, © 2021

See weather overview